sensor_id;sensor_type;location;lat;lon;timestamp;pressure;altitude;pressure_sealevel;temperature;humidity
54503;BME280;40411;50.090;21.954;2023-07-09T00:02:02;9527.47;;;13.63;100.00
54503;BME280;40411;50.090;21.954;2023-07-09T00:04:28;9525.34;;;13.53;100.00
54503;BME280;40411;50.090;21.954;2023-07-09T00:06:55;9525.34;;;13.53;100.00
54503;BME280;40411;50.090;21.954;2023-07-09T00:09:23;10184.66;;;13.39;100.00
54503;BME280;40411;50.090;21.954;2023-07-09T00:11:49;9523.19;;;13.43;100.00
54503;BME280;40411;50.090;21.954;2023-07-09T00:14:16;9853.81;;;13.40;100.00
54503;BME280;40411;50.090;21.954;2023-07-09T00:16:44;9524.06;;;13.47;100.00
54503;BME280;40411;50.090;21.954;2023-07-09T00:19:17;9195.00;;;13.56;100.00
54503;BME280;40411;50.090;21.954;2023-07-09T00:21:45;9195.31;;;13.58;100.00
54503;BME280;40411;50.090;21.954;2023-07-09T00:24:12;9523.84;;;13.46;100.00
54503;BME280;40411;50.090;21.954;2023-07-09T00:26:38;9192.28;;;13.43;100.00
54503;BME280;40411;50.090;21.954;2023-07-09T00:29:12;9191.78;;;13.40;100.00
54503;BME280;40411;50.090;21.954;2023-07-09T00:31:39;8862.22;;;13.48;100.00
54503;BME280;40411;50.090;21.954;2023-07-09T00:34:12;8862.63;;;13.50;100.00
54503;BME280;40411;50.090;21.954;2023-07-09T00:36:41;8863.03;;;13.52;100.00
54503;BME280;40411;50.090;21.954;2023-07-09T00:39:16;8862.00;;;13.47;100.00
54503;BME280;40411;50.090;21.954;2023-07-09T00:41:44;9192.28;;;13.43;100.00
54503;BME280;40411;50.090;21.954;2023-07-09T00:49:13;9520.00;;;13.27;100.00
54503;BME280;40411;50.090;21.954;2023-07-09T00:51:45;9519.06;;;13.23;100.00
54503;BME280;40411;50.090;21.954;2023-07-09T00:54:25;9189.59;;;13.30;100.00
54503;BME280;40411;50.090;21.954;2023-07-09T00:57:03;8860.09;;;13.37;100.00
54503;BME280;40411;50.090;21.954;2023-07-09T00:59:32;9190.22;;;13.33;100.00
54503;BME280;40411;50.090;21.954;2023-07-09T01:01:58;9189.59;;;13.30;100.00
54503;BME280;40411;50.090;21.954;2023-07-09T01:04:27;9519.81;;;13.26;100.00
54503;BME280;40411;50.090;21.954;2023-07-09T01:06:55;9848.03;;;13.13;100.00
54503;BME280;40411;50.090;21.954;2023-07-09T01:09:23;9846.41;;;13.06;100.00
54503;BME280;40411;50.090;21.954;2023-07-09T01:11:49;10176.50;;;13.02;100.00
54503;BME280;40411;50.090;21.954;2023-07-09T01:14:19;10175.50;;;12.97;100.00
54503;BME280;40411;50.090;21.954;2023-07-09T01:16:53;9846.41;;;13.06;100.00
54503;BME280;40411;50.090;21.954;2023-07-09T01:19:25;9846.50;;;13.06;100.00
54503;BME280;40411;50.090;21.954;2023-07-09T01:21:57;9847.06;;;13.09;100.00
54503;BME280;40411;50.090;21.954;2023-07-09T01:24:55;9849.88;;;13.22;100.00
54503;BME280;40411;50.090;21.954;2023-07-09T01:27:28;10176.59;;;13.03;100.00
54503;BME280;40411;50.090;21.954;2023-07-09T01:29:57;10176.28;;;13.01;100.00
54503;BME280;40411;50.090;21.954;2023-07-09T01:32:23;10504.53;;;12.89;100.00
54503;BME280;40411;50.090;21.954;2023-07-09T01:34:53;10175.72;;;12.99;100.00
54503;BME280;40411;50.090;21.954;2023-07-09T01:37:24;9516.59;;;13.11;100.00
54503;BME280;40411;50.090;21.954;2023-07-09T01:39:51;9190.00;;;13.32;100.00
54503;BME280;40411;50.090;21.954;2023-07-09T01:42:21;9190.44;;;13.34;100.00
54503;BME280;40411;50.090;21.954;2023-07-09T01:44:49;9518.53;;;13.20;100.00
54503;BME280;40411;50.090;21.954;2023-07-09T01:47:16;9516.81;;;13.12;100.00
54503;BME280;40411;50.090;21.954;2023-07-09T01:49:43;9847.28;;;13.10;100.00
54503;BME280;40411;50.090;21.954;2023-07-09T01:52:14;9848.91;;;13.17;100.00
54503;BME280;40411;50.090;21.954;2023-07-09T01:54:42;9518.84;;;13.22;100.00
54503;BME280;40411;50.090;21.954;2023-07-09T01:57:21;9517.88;;;13.17;100.00
54503;BME280;40411;50.090;21.954;2023-07-09T01:59:53;9518.72;;;13.21;100.00
54503;BME280;40411;50.090;21.954;2023-07-09T02:02:22;9190.53;;;13.34;100.00
54503;BME280;40411;50.090;21.954;2023-07-09T02:04:50;9522.34;;;13.38;100.00
54503;BME280;40411;50.090;21.954;2023-07-09T02:07:17;9191.78;;;13.40;100.00
54503;BME280;40411;50.090;21.954;2023-07-09T02:09:44;9520.97;;;13.32;100.00
54503;BME280;40411;50.090;21.954;2023-07-09T02:12:11;9851.84;;;13.31;100.00
54503;BME280;40411;50.090;21.954;2023-07-09T02:14:39;9850.22;;;13.24;100.00
54503;BME280;40411;50.090;21.954;2023-07-09T02:17:07;9850.97;;;13.27;100.00
54503;BME280;40411;50.090;21.954;2023-07-09T02:19:33;10180.28;;;13.19;100.00
54503;BME280;40411;50.090;21.954;2023-07-09T02:22:02;9850.97;;;13.27;100.00
54503;BME280;40411;50.090;21.954;2023-07-09T02:24:28;10180.84;;;13.22;100.00
54503;BME280;40411;50.090;21.954;2023-07-09T02:26:56;10509.09;;;13.10;100.00
54503;BME280;40411;50.090;21.954;2023-07-09T02:29:23;10837.50;;;12.99;100.00
54503;BME280;40411;50.090;21.954;2023-07-09T02:31:52;10837.13;;;12.97;100.00
54503;BME280;40411;50.090;21.954;2023-07-09T02:34:19;10837.50;;;12.99;100.00
54503;BME280;40411;50.090;21.954;2023-07-09T02:36:46;11165.31;;;12.85;100.00
54503;BME280;40411;50.090;21.954;2023-07-09T02:39:13;10836.09;;;12.92;100.00
54503;BME280;40411;50.090;21.954;2023-07-09T02:41:40;11162.56;;;12.73;100.00
54503;BME280;40411;50.090;21.954;2023-07-09T02:44:07;11163.16;;;12.76;100.00
54503;BME280;40411;50.090;21.954;2023-07-09T02:46:34;11163.62;;;12.78;100.00
54503;BME280;40411;50.090;21.954;2023-07-09T02:49:00;11161.34;;;12.68;100.00
54503;BME280;40411;50.090;21.954;2023-07-09T02:51:26;10834.22;;;12.84;100.00
54503;BME280;40411;50.090;21.954;2023-07-09T02:53:56;10835.38;;;12.89;100.00
54503;BME280;40411;50.090;21.954;2023-07-09T02:56:23;10836.09;;;12.92;100.00
54503;BME280;40411;50.090;21.954;2023-07-09T02:58:50;10505.00;;;12.91;100.00
54503;BME280;40411;50.090;21.954;2023-07-09T03:01:17;10504.06;;;12.87;100.00
54503;BME280;40411;50.090;21.954;2023-07-09T03:03:46;10175.59;;;12.98;100.00
54503;BME280;40411;50.090;21.954;2023-07-09T03:06:12;10175.72;;;12.99;100.00
54503;BME280;40411;50.090;21.954;2023-07-09T03:08:37;9846.28;;;13.05;100.00
54503;BME280;40411;50.090;21.954;2023-07-09T03:11:11;9845.31;;;13.01;100.00
54503;BME280;40411;50.090;21.954;2023-07-09T03:13:38;9846.72;;;13.07;100.00
54503;BME280;40411;50.090;21.954;2023-07-09T03:16:05;9848.25;;;13.14;100.00
54503;BME280;40411;50.090;21.954;2023-07-09T03:18:31;9517.34;;;13.14;100.00
54503;BME280;40411;50.090;21.954;2023-07-09T03:20:58;9517.66;;;13.16;100.00
54503;BME280;40411;50.090;21.954;2023-07-09T03:23:24;9846.63;;;13.07;100.00
54503;BME280;40411;50.090;21.954;2023-07-09T03:25:50;9517.03;;;13.13;100.00
54503;BME280;40411;50.090;21.954;2023-07-09T03:28:16;8858.38;;;13.28;100.00
54503;BME280;40411;50.090;21.954;2023-07-09T03:30:44;8859.06;;;13.32;100.00
54503;BME280;40411;50.090;21.954;2023-07-09T03:33:12;8859.38;;;13.33;100.00
54503;BME280;40411;50.090;21.954;2023-07-09T03:35:39;8529.06;;;13.36;100.00
54503;BME280;40411;50.090;21.954;2023-07-09T03:38:07;8203.13;;;13.63;100.00
54503;BME280;40411;50.090;21.954;2023-07-09T03:40:34;8203.03;;;13.62;100.00
54503;BME280;40411;50.090;21.954;2023-07-09T03:43:00;7872.41;;;13.64;100.00
54503;BME280;40411;50.090;21.954;2023-07-09T03:45:27;7214.94;;;13.91;100.00
54503;BME280;40411;50.090;21.954;2023-07-09T03:47:53;5897.75;;;14.37;100.00
54503;BME280;40411;50.090;21.954;2023-07-09T03:50:19;5570.75;;;14.65;100.00
54503;BME280;40411;50.090;21.954;2023-07-09T03:52:46;4581.81;;;15.03;100.00
54503;BME280;40411;50.090;21.954;2023-07-09T03:55:12;2934.44;;;15.94;100.00
54503;BME280;40411;50.090;21.954;2023-07-09T03:57:38;3927.44;;;15.74;100.00
54503;BME280;40411;50.090;21.954;2023-07-09T04:00:06;2935.31;;;16.02;100.00
54503;BME280;40411;50.090;21.954;2023-07-09T04:02:41;3597.72;;;15.91;100.00
54503;BME280;40411;50.090;21.954;2023-07-09T04:05:10;3598.78;;;16.00;100.00
54503;BME280;40411;50.090;21.954;2023-07-09T04:07:36;3928.31;;;15.81;100.00
54503;BME280;40411;50.090;21.954;2023-07-09T04:10:04;3596.59;;;15.81;100.00
54503;BME280;40411;50.090;21.954;2023-07-09T04:12:32;3265.78;;;15.90;100.00
54503;BME280;40411;50.090;21.954;2023-07-09T04:15:04;2934.88;;;15.98;100.00
54503;BME280;40411;50.090;21.954;2023-07-09T04:17:31;2935.53;;;16.04;100.00
54503;BME280;40411;50.090;21.954;2023-07-09T04:19:57;2935.72;;;16.06;100.00
54503;BME280;40411;50.090;21.954;2023-07-09T04:22:23;2936.16;;;16.11;100.00
54503;BME280;40411;50.090;21.954;2023-07-09T04:24:50;2604.97;;;16.17;100.00
54503;BME280;40411;50.090;21.954;2023-07-09T04:27:18;2605.84;;;16.26;100.00
54503;BME280;40411;50.090;21.954;2023-07-09T04:29:45;2606.56;;;16.33;100.00
54503;BME280;40411;50.090;21.954;2023-07-09T04:32:12;1944.34;;;16.51;100.00
54503;BME280;40411;50.090;21.954;2023-07-09T04:34:39;1613.50;;;16.65;100.00
54503;BME280;40411;50.090;21.954;2023-07-09T04:37:06;618.97;;;16.86;100.00
54503;BME280;40411;50.090;21.954;2023-07-09T04:39:33;288.06;;;17.04;100.00
54503;BME280;40411;50.090;21.954;2023-07-09T04:41:59;-43.44;;;17.14;100.00
54503;BME280;40411;50.090;21.954;2023-07-09T04:44:25;-375.41;;;17.17;100.00
54503;BME280;40411;50.090;21.954;2023-07-09T04:46:51;-1038.94;;;17.33;100.00
54503;BME280;40411;50.090;21.954;2023-07-09T04:49:17;-1370.63;;;17.46;100.00
54503;BME280;40411;50.090;21.954;2023-07-09T04:51:42;-2034.41;;;17.65;100.00
54503;BME280;40411;50.090;21.954;2023-07-09T04:54:09;-2698.56;;;17.81;100.00
54503;BME280;40411;50.090;21.954;2023-07-09T04:56:34;-2698.38;;;17.93;100.00
54503;BME280;40411;50.090;21.954;2023-07-09T04:59:02;-3695.16;;;18.33;100.00
54503;BME280;40411;50.090;21.954;2023-07-09T05:01:28;-3695.13;;;18.50;100.00
54503;BME280;40411;50.090;21.954;2023-07-09T05:03:54;-3695.09;;;18.67;100.00
54503;BME280;40411;50.090;21.954;2023-07-09T05:06:20;-3695.09;;;18.80;100.00
54503;BME280;40411;50.090;21.954;2023-07-09T05:08:48;-4360.53;;;18.94;100.00
54503;BME280;40411;50.090;21.954;2023-07-09T05:11:14;-4027.84;;;19.07;100.00
54503;BME280;40411;50.090;21.954;2023-07-09T05:13:41;-3695.00;;;19.23;100.00
54503;BME280;40411;50.090;21.954;2023-07-09T05:16:07;-3694.97;;;19.31;100.00
54503;BME280;40411;50.090;21.954;2023-07-09T05:18:32;-3694.97;;;19.30;100.00
54503;BME280;40411;50.090;21.954;2023-07-09T05:20:58;-4027.94;;;19.39;100.00
54503;BME280;40411;50.090;21.954;2023-07-09T05:23:25;-4694.31;;;19.74;100.00
54503;BME280;40411;50.090;21.954;2023-07-09T05:26:01;-4694.50;;;19.89;100.00
54503;BME280;40411;50.090;21.954;2023-07-09T05:28:29;-4028.16;;;20.04;100.00
54503;BME280;40411;50.090;21.954;2023-07-09T05:30:55;-3027.81;;;20.24;93.49
54503;BME280;40411;50.090;21.954;2023-07-09T05:33:21;-3027.56;;;20.43;93.08
54503;BME280;40411;50.090;21.954;2023-07-09T05:35:48;-2693.75;;;20.53;90.04
54503;BME280;40411;50.090;21.954;2023-07-09T05:38:15;-3027.13;;;20.77;89.59
54503;BME280;40411;50.090;21.954;2023-07-09T05:40:44;-3027.03;;;20.85;89.12
54503;BME280;40411;50.090;21.954;2023-07-09T05:43:10;-3694.56;;;21.02;90.52
54503;BME280;40411;50.090;21.954;2023-07-09T05:45:38;-3360.59;;;21.13;88.28
54503;BME280;40411;50.090;21.954;2023-07-09T05:48:05;-3694.50;;;21.24;89.03
54503;BME280;40411;50.090;21.954;2023-07-09T05:50:33;-3694.44;;;21.40;88.22
54503;BME280;40411;50.090;21.954;2023-07-09T05:52:59;-4696.88;;;21.73;89.22
54503;BME280;40411;50.090;21.954;2023-07-09T05:55:25;-4697.03;;;21.87;88.02
54503;BME280;40411;50.090;21.954;2023-07-09T05:57:52;-4362.84;;;21.91;85.60
54503;BME280;40411;50.090;21.954;2023-07-09T06:00:18;-3694.22;;;22.08;82.23
54503;BME280;40411;50.090;21.954;2023-07-09T06:02:45;-4028.66;;;22.34;81.13
54503;BME280;40411;50.090;21.954;2023-07-09T06:05:11;-4028.69;;;22.51;79.55
54503;BME280;40411;50.090;21.954;2023-07-09T06:07:38;-3024.66;;;22.58;76.75
54503;BME280;40411;50.090;21.954;2023-07-09T06:10:08;-2689.88;;;22.60;75.33
54503;BME280;40411;50.090;21.954;2023-07-09T06:12:35;-2689.25;;;22.93;73.76
54503;BME280;40411;50.090;21.954;2023-07-09T06:15:01;-3023.91;;;23.10;74.10
54503;BME280;40411;50.090;21.954;2023-07-09T06:17:28;-2353.47;;;23.26;70.75
54503;BME280;40411;50.090;21.954;2023-07-09T06:19:53;-2687.91;;;23.61;67.95
54503;BME280;40411;50.090;21.954;2023-07-09T06:22:19;-4028.91;;;24.56;66.39
54503;BME280;40411;50.090;21.954;2023-07-09T06:24:45;-4028.94;;;25.04;62.94
54503;BME280;40411;50.090;21.954;2023-07-09T06:27:11;-3692.75;;;25.55;59.43
54503;BME280;40411;50.090;21.954;2023-07-09T06:29:37;-6386.75;;;26.99;59.02
54503;BME280;40411;50.090;21.954;2023-07-09T06:32:04;-5713.31;;;27.02;56.69
54503;BME280;40411;50.090;21.954;2023-07-09T06:34:30;-5376.88;;;27.21;54.46
54503;BME280;40411;50.090;21.954;2023-07-09T06:36:56;-6052.31;;;27.74;54.07
54503;BME280;40411;50.090;21.954;2023-07-09T06:39:22;-6390.56;;;28.05;52.57
54503;BME280;40411;50.090;21.954;2023-07-09T06:41:49;-7406.78;;;28.93;51.11
54503;BME280;40411;50.090;21.954;2023-07-09T06:44:33;-7069.09;;;28.93;50.36
54503;BME280;40411;50.090;21.954;2023-07-09T06:46:59;-6053.88;;;28.26;52.28
54503;BME280;40411;50.090;21.954;2023-07-09T06:49:25;-5716.75;;;28.39;50.71
54503;BME280;40411;50.090;21.954;2023-07-09T06:51:51;-7066.56;;;28.38;54.44
54503;BME280;40411;50.090;21.954;2023-07-09T06:54:17;-5715.97;;;28.07;52.87
54503;BME280;40411;50.090;21.954;2023-07-09T06:56:43;-8082.28;;;28.98;54.49
54503;BME280;40411;50.090;21.954;2023-07-09T06:59:09;-7406.75;;;28.93;52.73
54503;BME280;40411;50.090;21.954;2023-07-09T07:01:35;-7407.28;;;29.04;51.90
54503;BME280;40411;50.090;21.954;2023-07-09T07:04:01;-8424.84;;;29.73;51.42
54503;BME280;40411;50.090;21.954;2023-07-09T07:06:27;-7410.34;;;29.64;47.76
54503;BME280;40411;50.090;21.954;2023-07-09T07:08:53;-7410.28;;;29.63;48.15
54503;BME280;40411;50.090;21.954;2023-07-09T07:11:19;-9104.09;;;30.17;51.20
54503;BME280;40411;50.090;21.954;2023-07-09T07:13:44;-8429.47;;;30.43;47.41
54503;BME280;40411;50.090;21.954;2023-07-09T07:16:12;-9109.66;;;30.90;46.71
54503;BME280;40411;50.090;21.954;2023-07-09T07:18:38;-9788.13;;;31.07;48.50
54503;BME280;40411;50.090;21.954;2023-07-09T07:21:05;-8431.88;;;30.80;46.10
54503;BME280;40411;50.090;21.954;2023-07-09T07:23:31;-9451.41;;;31.30;46.71
54503;BME280;40411;50.090;21.954;2023-07-09T07:25:57;-9794.41;;;31.80;44.56
54503;BME280;40411;50.090;21.954;2023-07-09T07:28:23;-9796.34;;;32.02;43.10
54503;BME280;40411;50.090;21.954;2023-07-09T07:31:04;-9113.22;;;31.37;45.43
54503;BME280;40411;50.090;21.954;2023-07-09T07:33:31;-9450.09;;;31.13;47.75
54503;BME280;40411;50.090;21.954;2023-07-09T07:35:57;-8433.88;;;31.10;44.20
54503;BME280;40411;50.090;21.954;2023-07-09T07:38:22;-8434.53;;;31.21;44.62
54503;BME280;40411;50.090;21.954;2023-07-09T07:40:48;-8773.25;;;31.20;45.21
54503;BME280;40411;50.090;21.954;2023-07-09T07:43:14;-8435.16;;;31.30;44.20
54503;BME280;40411;50.090;21.954;2023-07-09T07:45:43;-8096.28;;;31.29;43.30
54503;BME280;40411;50.090;21.954;2023-07-09T07:48:10;-8096.69;;;31.36;42.51
54503;BME280;40411;50.090;21.954;2023-07-09T07:50:37;-8435.03;;;31.28;44.24
54503;BME280;40411;50.090;21.954;2023-07-09T07:53:03;-10136.56;;;32.15;44.87
54503;BME280;40411;50.090;21.954;2023-07-09T07:55:30;-9795.47;;;31.92;45.93
54503;BME280;40411;50.090;21.954;2023-07-09T07:57:55;-9461.38;;;32.54;40.95
54503;BME280;40411;50.090;21.954;2023-07-09T08:00:22;-8779.00;;;32.02;41.66
54503;BME280;40411;50.090;21.954;2023-07-09T08:02:49;-11842.44;;;33.08;45.51
54503;BME280;40411;50.090;21.954;2023-07-09T08:05:15;-13213.38;;;34.06;46.40
54503;BME280;40411;50.090;21.954;2023-07-09T08:07:41;-10823.47;;;33.02;42.40
54503;BME280;40411;50.090;21.954;2023-07-09T08:10:07;-10819.19;;;32.60;45.65
54503;BME280;40411;50.090;21.954;2023-07-09T08:12:33;-10483.72;;;33.00;41.98
54503;BME280;40411;50.090;21.954;2023-07-09T08:14:59;-9803.56;;;32.87;40.26
54503;BME280;40411;50.090;21.954;2023-07-09T08:17:25;-9802.81;;;32.78;41.00
54503;BME280;40411;50.090;21.954;2023-07-09T08:19:53;-10828.88;;;33.56;40.52
54503;BME280;40411;50.090;21.954;2023-07-09T08:22:20;-11849.13;;;33.65;42.80
54503;BME280;40411;50.090;21.954;2023-07-09T08:24:48;-12192.06;;;33.92;43.14
54503;BME280;40411;50.090;21.954;2023-07-09T08:27:14;-11854.03;;;34.08;40.52
54503;BME280;40411;50.090;21.954;2023-07-09T08:29:40;-9121.44;;;32.46;41.10
54503;BME280;40411;50.090;21.954;2023-07-09T08:32:08;-10140.31;;;32.57;44.40
54503;BME280;40411;50.090;21.954;2023-07-09T08:34:34;-11853.28;;;34.01;41.73
54503;BME280;40411;50.090;21.954;2023-07-09T08:37:01;-13909.03;;;35.16;43.98
54503;BME280;40411;50.090;21.954;2023-07-09T08:39:27;-12890.34;;;35.34;38.74
54503;BME280;40411;50.090;21.954;2023-07-09T08:41:57;-10146.00;;;33.20;40.31
54503;BME280;40411;50.090;21.954;2023-07-09T08:47:31;-11181.16;;;34.75;36.49
54503;BME280;40411;50.090;21.954;2023-07-09T08:50:04;-6063.38;;;31.49;39.31
54503;BME280;40411;50.090;21.954;2023-07-09T08:52:35;-8782.81;;;32.57;40.80
54503;BME280;40411;50.090;21.954;2023-07-09T08:57:40;-12194.66;;;34.13;42.99
54503;BME280;40411;50.090;21.954;2023-07-09T09:02:51;-11180.19;;;34.65;37.06
54503;BME280;40411;50.090;21.954;2023-07-09T09:05:20;-12881.16;;;34.64;43.68
54503;BME280;40411;50.090;21.954;2023-07-09T09:07:51;-11520.09;;;34.62;39.17
54503;BME280;40411;50.090;21.954;2023-07-09T09:10:44;-12207.28;;;35.18;38.36
54503;BME280;40411;50.090;21.954;2023-07-09T09:13:17;-10500.00;;;34.70;36.18
54503;BME280;40411;50.090;21.954;2023-07-09T09:15:46;-9816.97;;;34.45;34.86
54503;BME280;40411;50.090;21.954;2023-07-09T09:18:20;-9815.13;;;34.23;35.90
54503;BME280;40411;50.090;21.954;2023-07-09T09:20:52;-10498.34;;;34.53;36.90
54503;BME280;40411;50.090;21.954;2023-07-09T09:23:18;-10845.88;;;35.26;34.78
54503;BME280;40411;50.090;21.954;2023-07-09T09:25:51;-11184.69;;;35.08;36.22
54503;BME280;40411;50.090;21.954;2023-07-09T09:28:18;-8793.56;;;34.11;34.86
54503;BME280;40411;50.090;21.954;2023-07-09T09:30:44;-8113.94;;;34.27;32.20
54503;BME280;40411;50.090;21.954;2023-07-09T09:33:11;-7430.16;;;33.66;34.15
54503;BME280;40411;50.090;21.954;2023-07-09T09:35:41;-9479.81;;;34.85;33.62
54503;BME280;40411;50.090;21.954;2023-07-09T09:38:16;-9821.63;;;35.00;33.74
54503;BME280;40411;50.090;21.954;2023-07-09T09:40:42;-10167.06;;;35.54;32.00
54503;BME280;40411;50.090;21.954;2023-07-09T09:43:14;-10162.94;;;35.08;34.96
54503;BME280;40411;50.090;21.954;2023-07-09T09:45:41;-10839.72;;;34.64;38.22
54503;BME280;40411;50.090;21.954;2023-07-09T09:48:29;-10160.78;;;34.84;36.20
54503;BME280;40411;50.090;21.954;2023-07-09T09:50:56;-10157.34;;;34.45;38.00
54503;BME280;40411;50.090;21.954;2023-07-09T09:53:28;-10847.53;;;35.42;34.56
54503;BME280;40411;50.090;21.954;2023-07-09T09:55:55;-9478.25;;;34.65;34.60
54503;BME280;40411;50.090;21.954;2023-07-09T09:58:27;-8792.31;;;33.93;36.62
54503;BME280;40411;50.090;21.954;2023-07-09T10:00:57;-8108.66;;;33.37;38.11
54503;BME280;40411;50.090;21.954;2023-07-09T10:03:42;-9135.06;;;34.29;35.87
54503;BME280;40411;50.090;21.954;2023-07-09T10:06:16;-8114.38;;;34.35;32.99
54503;BME280;40411;50.090;21.954;2023-07-09T10:11:41;-5046.91;;;32.27;36.68
54503;BME280;40411;50.090;21.954;2023-07-09T10:16:55;-4707.22;;;32.19;35.88
54503;BME280;40411;50.090;21.954;2023-07-09T10:19:49;-5046.53;;;31.98;38.05
54503;BME280;40411;50.090;21.954;2023-07-09T10:27:37;-1994.47;;;30.73;37.86
54503;BME280;40411;50.090;21.954;2023-07-09T10:30:13;-1655.88;;;30.60;37.82
54503;BME280;40411;50.090;21.954;2023-07-09T10:33:09;-1317.59;;;30.43;38.74
54503;BME280;40411;50.090;21.954;2023-07-09T10:41:26;-2332.50;;;31.09;37.41
54503;BME280;40411;50.090;21.954;2023-07-09T10:44:06;-2672.06;;;30.94;38.46
54503;BME280;40411;50.090;21.954;2023-07-09T10:46:37;-3350.41;;;30.83;41.29
54503;BME280;40411;50.090;21.954;2023-07-09T10:49:05;-3011.00;;;31.04;38.42
54503;BME280;40411;50.090;21.954;2023-07-09T10:51:41;-4028.00;;;32.08;35.40
54503;BME280;40411;50.090;21.954;2023-07-09T10:54:32;-4707.19;;;32.16;36.71
54503;BME280;40411;50.090;21.954;2023-07-09T10:57:38;-6407.44;;;32.98;37.31
54503;BME280;40411;50.090;21.954;2023-07-09T11:00:15;-7428.19;;;33.25;37.96
54503;BME280;40411;50.090;21.954;2023-07-09T11:02:43;-5387.44;;;32.81;35.83
54503;BME280;40411;50.090;21.954;2023-07-09T11:05:10;-7088.28;;;33.26;36.83
54503;BME280;40411;50.090;21.954;2023-07-09T11:10:10;-3688.34;;;32.12;35.72
54503;BME280;40411;50.090;21.954;2023-07-09T11:12:44;-2671.50;;;31.18;37.52
54503;BME280;40411;50.090;21.954;2023-07-09T11:15:17;-1655.94;;;30.59;39.09
54503;BME280;40411;50.090;21.954;2023-07-09T11:17:46;-1996.84;;;30.03;42.48
54503;BME280;40411;50.090;21.954;2023-07-09T11:20:35;-2336.19;;;29.79;44.52
54503;BME280;40411;50.090;21.954;2023-07-09T11:23:07;-7081.25;;;31.65;46.62
54503;BME280;40411;50.090;21.954;2023-07-09T11:26:29;-6404.41;;;32.07;41.59
54503;BME280;40411;50.090;21.954;2023-07-09T11:28:37;-5386.78;;;32.43;37.33
54503;BME280;40411;50.090;21.954;2023-07-09T11:31:08;-6065.41;;;32.21;40.92
54503;BME280;40411;50.090;21.954;2023-07-09T11:33:47;-5724.69;;;31.68;43.24
54503;BME280;40411;50.090;21.954;2023-07-09T11:36:24;-3350.44;;;30.80;41.67
54503;BME280;40411;50.090;21.954;2023-07-09T11:38:52;-642.00;;;29.99;39.54
54503;BME280;40411;50.090;21.954;2023-07-09T11:41:41;31.75;;;29.38;42.01
54503;BME280;40411;50.090;21.954;2023-07-09T11:46:36;-7081.03;;;31.59;47.96
54503;BME280;40411;50.090;21.954;2023-07-09T11:49:08;-6745.16;;;32.42;41.15
54503;BME280;40411;50.090;21.954;2023-07-09T11:51:42;-5725.97;;;32.24;39.61
54503;BME280;40411;50.090;21.954;2023-07-09T11:54:11;-5047.38;;;32.67;35.21
54503;BME280;40411;50.090;21.954;2023-07-09T11:56:53;-4707.03;;;31.95;38.75
54503;BME280;40411;50.090;21.954;2023-07-09T11:59:19;-5387.16;;;32.65;36.66
54503;BME280;40411;50.090;21.954;2023-07-09T12:01:46;-5387.53;;;32.87;36.10
54503;BME280;40411;50.090;21.954;2023-07-09T12:04:18;-5724.72;;;31.70;43.02
54503;BME280;40411;50.090;21.954;2023-07-09T12:06:46;-1992.69;;;31.26;36.78
54503;BME280;40411;50.090;21.954;2023-07-09T12:09:16;-5046.78;;;32.17;39.06
54503;BME280;40411;50.090;21.954;2023-07-09T12:11:50;-1654.84;;;30.87;38.38
54503;BME280;40411;50.090;21.954;2023-07-09T12:14:18;-3689.22;;;31.02;41.13
54503;BME280;40411;50.090;21.954;2023-07-09T12:16:47;-1995.72;;;30.36;42.41
54503;BME280;40411;50.090;21.954;2023-07-09T12:19:19;-2334.16;;;30.51;40.98
54503;BME280;40411;50.090;21.954;2023-07-09T12:21:48;-3349.94;;;31.19;39.98
54503;BME280;40411;50.090;21.954;2023-07-09T12:24:26;-2332.88;;;30.96;39.10
54503;BME280;40411;50.090;21.954;2023-07-09T12:26:57;-7423.34;;;32.26;45.33
54503;BME280;40411;50.090;21.954;2023-07-09T12:29:27;-3688.06;;;32.46;34.11
54503;BME280;40411;50.090;21.954;2023-07-09T12:31:57;-4027.81;;;32.62;34.55
54503;BME280;40411;50.090;21.954;2023-07-09T12:34:24;-2668.03;;;32.63;31.82
54503;BME280;40411;50.090;21.954;2023-07-09T12:36:52;-3008.34;;;32.47;33.11
54503;BME280;40411;50.090;21.954;2023-07-09T12:39:24;-1312.47;;;31.58;34.32
54503;BME280;40411;50.090;21.954;2023-07-09T12:41:54;1058.59;;;30.76;33.97
54503;BME280;40411;50.090;21.954;2023-07-09T12:44:22;-1994.06;;;30.85;38.68
54503;BME280;40411;50.090;21.954;2023-07-09T12:46:50;-4028.03;;;31.99;37.96
54503;BME280;40411;50.090;21.954;2023-07-09T12:49:28;-4027.94;;;32.28;35.93
54503;BME280;40411;50.090;21.954;2023-07-09T12:51:56;-4027.88;;;32.49;35.93
54503;BME280;40411;50.090;21.954;2023-07-09T12:54:22;-2668.94;;;32.26;33.85
54503;BME280;40411;50.090;21.954;2023-07-09T12:56:53;-3688.50;;;31.92;37.24
54503;BME280;40411;50.090;21.954;2023-07-09T12:59:22;-5046.56;;;32.00;41.67
54503;BME280;40411;50.090;21.954;2023-07-09T13:02:00;-1310.47;;;32.03;32.89
54503;BME280;40411;50.090;21.954;2023-07-09T13:04:31;-4027.94;;;32.24;37.15
54503;BME280;40411;50.090;21.954;2023-07-09T13:06:57;-3347.91;;;32.68;33.53
54503;BME280;40411;50.090;21.954;2023-07-09T13:09:26;-5047.56;;;32.80;36.83
54503;BME280;40411;50.090;21.954;2023-07-09T13:11:54;-296.25;;;31.14;34.54
54503;BME280;40411;50.090;21.954;2023-07-09T13:14:30;39.59;;;30.59;37.69
54503;BME280;40411;50.090;21.954;2023-07-09T13:17:05;35.41;;;29.95;40.44
54503;BME280;40411;50.090;21.954;2023-07-09T13:19:32;-3011.00;;;31.04;41.62
54503;BME280;40411;50.090;21.954;2023-07-09T13:21:59;-1992.19;;;31.40;37.32
54503;BME280;40411;50.090;21.954;2023-07-09T13:24:28;-3350.06;;;31.08;42.05
54503;BME280;40411;50.090;21.954;2023-07-09T13:26:54;376.00;;;30.20;39.32
54503;BME280;40411;50.090;21.954;2023-07-09T13:29:20;1724.88;;;29.38;40.36
54503;BME280;40411;50.090;21.954;2023-07-09T13:31:47;2736.94;;;29.00;39.88
54503;BME280;40411;50.090;21.954;2023-07-09T13:34:19;3409.16;;;28.57;41.78